Gaylord, Minnesota
Current Conditions -  °F | °C
As of 12:14 PM on Friday 19 Dec 2014 (Local Time) from KGYL Reporting Station
Haze Haze  
Wind Chill: 23°   Ceiling: 800
Heat Index: 30°   Visibility: 5mi
Dew Point: 28°   Wind: 7mph
Humidity: 92%   Direction: 150°SSE
Pressure: 30.18"   Gusts: NA
Location:  44.55°N, 94.22°W
Report Text: KGYL 191814Z AUTO 15006KT 5SM BR OVC008 M01/M02 A3018 RMK AO2 T10101022
Loading
Personal Weather Stations






























Interactive Weather Map New forecast layout! Learn more

10-Day Weather Forecast

Advertisements
Track Severe Weather on mobile